createdAt,value
2019-02-18T00:00:42.564Z,2.30
2019-02-18T00:03:14.288Z,2.30
2019-02-18T00:05:45.641Z,2.20
2019-02-18T00:08:17.211Z,2.10
2019-02-18T00:10:48.140Z,2.10
2019-02-18T00:13:20.446Z,2.10
2019-02-18T00:15:52.007Z,2.10
2019-02-18T00:18:22.977Z,2.20
2019-02-18T00:20:54.986Z,2.10
2019-02-18T00:23:25.926Z,2.00
2019-02-18T00:25:56.943Z,2.00
2019-02-18T00:28:28.373Z,2.00
2019-02-18T00:30:59.634Z,2.00
2019-02-18T00:33:31.488Z,1.90
2019-02-18T00:36:03.216Z,2.00
2019-02-18T00:38:34.769Z,1.90
2019-02-18T00:41:06.638Z,1.90
2019-02-18T00:43:38.177Z,1.90
2019-02-18T00:46:09.165Z,1.80
2019-02-18T00:48:40.472Z,1.80
2019-02-18T00:51:12.303Z,1.70
2019-02-18T00:53:44.131Z,1.70
2019-02-18T00:56:16.108Z,1.70
2019-02-18T00:58:47.755Z,1.60
2019-02-18T01:01:19.003Z,1.70
2019-02-18T01:03:50.306Z,1.70
2019-02-18T01:06:21.878Z,1.60
2019-02-18T01:08:53.243Z,1.60
2019-02-18T01:11:24.613Z,1.50
2019-02-18T01:13:56.154Z,1.40
2019-02-18T01:16:27.631Z,1.40
2019-02-18T01:18:59.036Z,1.40
2019-02-18T01:21:30.754Z,1.30
2019-02-18T01:24:01.747Z,1.20
2019-02-18T01:26:33.710Z,1.20
2019-02-18T01:29:05.260Z,1.20
2019-02-18T01:31:37.107Z,1.10
2019-02-18T01:34:08.096Z,1.10
2019-02-18T01:36:39.356Z,1.10
2019-02-18T01:39:10.763Z,1.10
2019-02-18T01:41:42.347Z,1.10
2019-02-18T01:44:13.328Z,1.10
2019-02-18T01:46:44.574Z,1.10
2019-02-18T01:49:16.115Z,1.00
2019-02-18T01:51:47.950Z,0.90
2019-02-18T01:54:20.098Z,1.00
2019-02-18T01:56:50.931Z,1.00
2019-02-18T01:59:22.212Z,0.90
2019-02-18T02:01:54.251Z,1.10
2019-02-18T02:04:25.991Z,1.00
2019-02-18T02:06:57.510Z,1.00
2019-02-18T02:09:28.850Z,0.90
2019-02-18T02:11:59.519Z,0.90
2019-02-18T02:14:31.168Z,0.90
2019-02-18T02:17:02.570Z,0.90
2019-02-18T02:19:34.299Z,0.90
2019-02-18T02:22:05.829Z,0.90
2019-02-18T02:24:37.083Z,0.80
2019-02-18T02:27:08.768Z,0.80
2019-02-18T02:29:40.019Z,0.90
2019-02-18T02:32:11.503Z,0.80
2019-02-18T02:34:42.833Z,0.80
2019-02-18T02:37:13.489Z,0.80
2019-02-18T02:39:45.057Z,0.80
2019-02-18T02:42:16.645Z,0.70
2019-02-18T02:44:48.314Z,0.70
2019-02-18T02:47:20.112Z,0.80
2019-02-18T02:49:51.403Z,0.80
2019-02-18T02:52:22.394Z,0.70
2019-02-18T02:54:53.972Z,0.70
2019-02-18T02:57:25.210Z,0.70
2019-02-18T02:59:56.563Z,0.70
2019-02-18T03:02:28.107Z,0.80
2019-02-18T03:04:59.402Z,0.80
2019-02-18T03:07:30.701Z,0.80
2019-02-18T03:10:02.262Z,0.70
2019-02-18T03:12:34.096Z,0.70
2019-02-18T03:15:06.132Z,0.70
2019-02-18T03:17:37.649Z,0.70
2019-02-18T03:20:09.213Z,0.70
2019-02-18T03:22:40.731Z,0.70
2019-02-18T03:25:24.310Z,0.60
2019-02-18T03:28:27.164Z,0.60
2019-02-18T03:31:04.645Z,0.70
2019-02-18T03:33:44.307Z,0.50
2019-02-18T03:36:16.144Z,0.50
2019-02-18T03:38:48.275Z,0.50
2019-02-18T03:41:19.795Z,0.50
2019-02-18T03:43:50.717Z,0.50
2019-02-18T03:46:22.363Z,0.40
2019-02-18T03:48:53.595Z,0.40
2019-02-18T03:51:24.953Z,0.40
2019-02-18T03:53:56.368Z,0.40
2019-02-18T03:56:27.649Z,0.40
2019-02-18T03:58:59.464Z,0.40
2019-02-18T04:01:30.432Z,0.30
2019-02-18T04:04:01.943Z,0.30
2019-02-18T04:06:33.778Z,0.30
2019-02-18T04:09:05.862Z,0.30
2019-02-18T04:11:37.122Z,0.30
2019-02-18T04:14:08.639Z,0.30
2019-02-18T04:16:39.847Z,0.30
2019-02-18T04:19:11.140Z,0.20
2019-02-18T04:21:42.720Z,0.20
2019-02-18T04:24:14.268Z,0.20
2019-02-18T04:26:45.458Z,0.20
2019-02-18T04:29:17.030Z,0.30
2019-02-18T04:31:48.735Z,0.20
2019-02-18T04:34:20.290Z,0.20
2019-02-18T04:36:51.818Z,0.20
2019-02-18T04:39:23.400Z,0.10
2019-02-18T04:41:54.766Z,0.10
2019-02-18T04:44:26.335Z,0.10
2019-02-18T04:46:57.439Z,0.00
2019-02-18T04:49:28.721Z,0.00
2019-02-18T04:52:00.269Z,-0.10
2019-02-18T04:54:31.468Z,-0.20
2019-02-18T04:57:02.472Z,-0.20
2019-02-18T04:59:34.381Z,-0.20
2019-02-18T05:02:05.905Z,-0.20
2019-02-18T05:04:36.845Z,-0.20
2019-02-18T05:07:08.088Z,-0.10
2019-02-18T05:09:40.262Z,-0.20
2019-02-18T05:12:11.624Z,-0.20
2019-02-18T05:14:42.887Z,-0.20
2019-02-18T05:17:14.605Z,-0.30
2019-02-18T05:19:45.832Z,-0.20
2019-02-18T05:22:16.464Z,-0.20
2019-02-18T05:24:48.179Z,-0.20
2019-02-18T05:27:18.809Z,-0.20
2019-02-18T05:29:49.720Z,-0.30
2019-02-18T05:32:20.995Z,-0.30
2019-02-18T05:34:51.948Z,-0.30
2019-02-18T05:37:23.214Z,-0.30
2019-02-18T05:39:55.514Z,-0.30
2019-02-18T05:42:27.219Z,-0.30
2019-02-18T05:44:58.458Z,-0.30
2019-02-18T05:47:29.995Z,-0.30
2019-02-18T05:50:00.678Z,-0.30
2019-02-18T05:52:31.894Z,-0.30
2019-02-18T05:55:04.912Z,-0.30
2019-02-18T05:57:36.567Z,-0.40
2019-02-18T06:00:10.701Z,-0.40
2019-02-18T06:02:42.347Z,-0.40
2019-02-18T06:05:14.192Z,-0.40
2019-02-18T06:07:46.034Z,-0.40
2019-02-18T06:10:17.667Z,-0.40
2019-02-18T06:12:48.883Z,-0.50
2019-02-18T06:15:20.839Z,-0.40
2019-02-18T06:17:51.767Z,-0.50
2019-02-18T06:20:23.042Z,-0.50
2019-02-18T06:22:53.734Z,-0.50
2019-02-18T06:25:25.261Z,-0.50
2019-02-18T06:27:56.864Z,-0.40
2019-02-18T06:30:28.793Z,-0.40
2019-02-18T06:33:01.160Z,-0.40
2019-02-18T06:35:32.613Z,-0.60
2019-02-18T06:38:03.854Z,-0.60
2019-02-18T06:40:35.699Z,-0.50
2019-02-18T06:43:07.859Z,-0.50
2019-02-18T06:46:10.452Z,-0.60
2019-02-18T06:48:46.701Z,-0.50
2019-02-18T06:51:17.984Z,-0.50
2019-02-18T06:53:48.938Z,-0.40
2019-02-18T06:56:24.420Z,-0.40
2019-02-18T06:59:00.847Z,-0.40
2019-02-18T07:01:51.126Z,-0.40
2019-02-18T07:04:50.004Z,-0.40
2019-02-18T07:07:45.794Z,-0.30
2019-02-18T07:10:47.751Z,-0.20
2019-02-18T07:13:19.698Z,-0.20
2019-02-18T07:15:50.978Z,-0.10
2019-02-18T07:18:22.609Z,-0.10
2019-02-18T07:20:54.198Z,-0.10
2019-02-18T07:23:26.076Z,0.00
2019-02-18T07:25:56.818Z,0.10
2019-02-18T07:28:28.320Z,0.10
2019-02-18T07:30:59.624Z,0.20
2019-02-18T07:33:31.516Z,0.30
2019-02-18T07:36:02.771Z,0.30
2019-02-18T07:38:34.631Z,0.40
2019-02-18T07:41:05.332Z,0.40
2019-02-18T07:43:36.963Z,0.50
2019-02-18T07:46:08.100Z,0.50
2019-02-18T07:48:39.344Z,0.60
2019-02-18T07:51:11.091Z,0.60
2019-02-18T07:53:42.667Z,0.70
2019-02-18T07:56:14.268Z,0.80
2019-02-18T07:58:45.059Z,0.80
2019-02-18T08:01:16.570Z,0.90
2019-02-18T08:03:48.117Z,1.00
2019-02-18T08:06:19.731Z,1.00
2019-02-18T08:08:51.730Z,1.10
2019-02-18T08:11:23.311Z,1.20
2019-02-18T08:13:54.647Z,1.30
2019-02-18T08:16:25.907Z,1.40
2019-02-18T08:18:57.141Z,1.50
2019-02-18T08:21:28.411Z,1.60
2019-02-18T08:24:00.220Z,1.80
2019-02-18T08:26:31.458Z,1.90
2019-02-18T08:29:02.866Z,2.00
2019-02-18T08:31:34.705Z,2.20
2019-02-18T08:34:06.256Z,2.40
2019-02-18T08:36:37.853Z,2.70
2019-02-18T08:39:09.352Z,2.90
2019-02-18T08:41:40.880Z,3.20
2019-02-18T08:44:12.460Z,3.40
2019-02-18T08:46:44.154Z,3.70
2019-02-18T08:49:15.402Z,4.10
2019-02-18T08:51:47.023Z,4.20
2019-02-18T08:54:18.538Z,4.30
2019-02-18T08:56:50.384Z,4.40
2019-02-18T08:59:22.393Z,4.60
2019-02-18T09:01:53.716Z,4.80
2019-02-18T09:04:27.954Z,4.90
2019-02-18T09:06:58.281Z,5.00
2019-02-18T09:09:29.261Z,5.10
2019-02-18T09:12:00.328Z,5.30
2019-02-18T09:14:32.283Z,5.40
2019-02-18T09:17:03.580Z,5.70
2019-02-18T09:19:34.821Z,5.80
2019-02-18T09:22:27.419Z,5.90
2019-02-18T09:25:04.232Z,5.90
2019-02-18T09:27:35.788Z,6.10
2019-02-18T09:30:07.368Z,6.40
2019-02-18T09:32:38.902Z,6.50
2019-02-18T09:35:10.142Z,6.60
2019-02-18T09:37:41.714Z,6.50
2019-02-18T09:40:13.309Z,6.80
2019-02-18T09:42:44.855Z,6.90
2019-02-18T09:45:16.538Z,7.10
2019-02-18T09:47:48.254Z,7.30
2019-02-18T09:50:20.090Z,7.30
2019-02-18T09:52:51.009Z,7.40
2019-02-18T09:55:23.552Z,7.50
2019-02-18T09:57:54.766Z,7.60
2019-02-18T10:00:25.842Z,7.70
2019-02-18T10:02:57.585Z,8.00
2019-02-18T10:05:28.806Z,8.10
2019-02-18T10:08:00.051Z,8.20
2019-02-18T10:10:31.326Z,8.30
2019-02-18T10:13:02.295Z,8.40
2019-02-18T10:15:33.860Z,8.60
2019-02-18T10:18:05.590Z,8.70
2019-02-18T10:20:36.952Z,8.90
2019-02-18T10:23:08.943Z,8.90
2019-02-18T10:25:40.197Z,9.00
2019-02-18T10:28:11.812Z,9.30
2019-02-18T10:30:43.969Z,9.50
2019-02-18T10:33:16.010Z,9.50
2019-02-18T10:35:47.884Z,9.80
2019-02-18T10:38:19.818Z,10.20
2019-02-18T10:40:51.392Z,10.50
2019-02-18T10:43:32.214Z,10.90
2019-02-18T10:45:56.650Z,11.70
2019-02-18T10:48:27.938Z,12.40
2019-02-18T10:50:59.894Z,13.10
2019-02-18T10:53:31.502Z,13.30
2019-02-18T10:56:03.076Z,13.60
2019-02-18T10:58:35.027Z,13.80
2019-02-18T11:01:06.887Z,14.20
2019-02-18T11:03:38.931Z,14.60
2019-02-18T11:06:10.239Z,15.00
2019-02-18T11:08:41.228Z,15.60
2019-02-18T11:11:17.007Z,15.60
2019-02-18T11:13:46.487Z,15.90
2019-02-18T11:16:17.791Z,16.30
2019-02-18T11:18:49.679Z,16.30
2019-02-18T11:21:21.001Z,16.50
2019-02-18T11:23:52.561Z,16.40
2019-02-18T11:26:24.471Z,16.60
2019-02-18T11:28:56.102Z,16.80
2019-02-18T11:31:28.281Z,17.00
2019-02-18T11:33:59.829Z,16.90
2019-02-18T11:36:31.459Z,17.90
2019-02-18T11:39:05.430Z,18.50
2019-02-18T11:41:37.025Z,18.10
2019-02-18T11:44:08.283Z,17.90
2019-02-18T11:46:39.618Z,18.00
2019-02-18T11:49:11.189Z,17.90
2019-02-18T11:51:42.786Z,18.10
2019-02-18T11:54:14.400Z,18.40
2019-02-18T11:56:45.959Z,18.70
2019-02-18T11:59:23.970Z,19.10
2019-02-18T12:01:50.590Z,19.30
2019-02-18T12:04:22.420Z,19.60
2019-02-18T12:06:54.647Z,19.20
2019-02-18T12:09:25.611Z,19.00
2019-02-18T12:11:57.184Z,19.10
2019-02-18T12:14:29.182Z,19.20
2019-02-18T12:17:00.598Z,19.60
2019-02-18T12:19:32.418Z,19.80
2019-02-18T12:22:04.001Z,20.10
2019-02-18T12:24:35.315Z,20.70
2019-02-18T12:27:06.927Z,20.50
2019-02-18T12:29:38.030Z,20.70
2019-02-18T12:32:08.761Z,21.10
2019-02-18T12:34:40.494Z,20.90
2019-02-18T12:37:11.819Z,20.80
2019-02-18T12:39:43.193Z,20.50
2019-02-18T12:42:14.182Z,20.90
2019-02-18T12:44:46.046Z,21.20
2019-02-18T12:47:18.159Z,21.80
2019-02-18T12:49:51.049Z,21.40
2019-02-18T12:52:22.473Z,21.40
2019-02-18T12:54:54.073Z,21.20
2019-02-18T12:57:25.749Z,21.50
2019-02-18T12:59:57.750Z,21.70
2019-02-18T13:02:29.376Z,21.40
2019-02-18T13:05:00.503Z,22.10
2019-02-18T13:07:31.736Z,22.20
2019-02-18T13:10:05.290Z,22.30
2019-02-18T13:12:36.363Z,22.20
2019-02-18T13:15:10.524Z,21.70
2019-02-18T13:17:42.872Z,21.90
2019-02-18T13:20:14.081Z,22.10
2019-02-18T13:22:45.671Z,22.40
2019-02-18T13:25:17.214Z,22.50
2019-02-18T13:27:49.482Z,22.10
2019-02-18T13:30:20.887Z,22.10
2019-02-18T13:32:52.170Z,22.30
2019-02-18T13:35:23.780Z,21.70
2019-02-18T13:37:55.557Z,21.90
2019-02-18T13:40:27.612Z,22.00
2019-02-18T13:42:59.025Z,21.50
2019-02-18T13:45:30.995Z,21.50
2019-02-18T13:48:02.744Z,21.30
2019-02-18T13:50:34.100Z,21.60
2019-02-18T13:53:06.814Z,21.60
2019-02-18T13:55:38.732Z,21.90
2019-02-18T13:58:10.331Z,21.60
2019-02-18T14:00:41.886Z,21.70
2019-02-18T14:03:12.902Z,21.50
2019-02-18T14:05:45.021Z,21.70
2019-02-18T14:08:17.000Z,21.50
2019-02-18T14:10:48.413Z,21.30
2019-02-18T14:13:20.006Z,21.10
2019-02-18T14:15:51.557Z,21.30
2019-02-18T14:18:25.392Z,21.30
2019-02-18T14:20:56.737Z,20.80
2019-02-18T14:23:28.371Z,20.90
2019-02-18T14:26:00.047Z,20.70
2019-02-18T14:28:34.525Z,20.80
2019-02-18T14:31:13.000Z,21.00
2019-02-18T14:33:44.635Z,20.70
2019-02-18T14:36:17.289Z,20.60
2019-02-18T14:38:48.886Z,20.70
2019-02-18T14:41:21.206Z,20.40
2019-02-18T14:43:52.936Z,20.20
2019-02-18T14:46:24.270Z,20.00
2019-02-18T14:48:55.937Z,19.90
2019-02-18T14:51:27.730Z,19.90
2019-02-18T14:54:00.188Z,19.60
2019-02-18T14:56:32.056Z,19.30
2019-02-18T14:59:03.734Z,19.20
2019-02-18T15:01:35.070Z,19.20
2019-02-18T15:04:06.595Z,19.40
2019-02-18T15:06:38.524Z,19.30
2019-02-18T15:09:09.585Z,19.20
2019-02-18T15:11:40.953Z,19.20
2019-02-18T15:14:12.820Z,18.80
2019-02-18T15:16:44.356Z,18.70
2019-02-18T15:19:16.169Z,18.60
2019-02-18T15:21:47.508Z,18.50
2019-02-18T15:24:19.254Z,18.20
2019-02-18T15:26:50.515Z,17.90
2019-02-18T15:29:22.749Z,17.80
2019-02-18T15:31:57.990Z,17.50
2019-02-18T15:34:29.791Z,17.30
2019-02-18T15:37:01.371Z,17.30
2019-02-18T15:39:33.096Z,17.40
2019-02-18T15:42:04.908Z,17.30
2019-02-18T15:44:36.211Z,17.00
2019-02-18T15:47:07.664Z,16.80
2019-02-18T15:49:41.803Z,16.70
2019-02-18T15:52:14.613Z,16.40
2019-02-18T15:54:47.629Z,16.20
2019-02-18T15:57:20.314Z,16.10
2019-02-18T15:59:54.617Z,15.90
2019-02-18T16:02:27.019Z,15.70
2019-02-18T16:05:00.334Z,15.60
2019-02-18T16:07:32.658Z,15.50
2019-02-18T16:10:04.502Z,15.30
2019-02-18T16:12:36.074Z,15.10
2019-02-18T16:15:09.588Z,14.70
2019-02-18T16:17:41.539Z,14.50
2019-02-18T16:20:14.883Z,14.20
2019-02-18T16:22:46.847Z,14.10
2019-02-18T16:25:20.783Z,13.90
2019-02-18T16:27:52.117Z,13.70
2019-02-18T16:30:24.033Z,13.70
2019-02-18T16:32:56.054Z,13.50
2019-02-18T16:35:27.767Z,13.30
2019-02-18T16:37:59.163Z,13.10
2019-02-18T16:40:31.524Z,12.90
2019-02-18T16:43:03.310Z,12.70
2019-02-18T16:45:35.909Z,12.50
2019-02-18T16:48:08.078Z,12.40
2019-02-18T16:50:39.093Z,12.30
2019-02-18T16:53:10.310Z,12.20
2019-02-18T16:55:41.994Z,12.00
2019-02-18T16:58:13.493Z,11.80
2019-02-18T17:00:45.472Z,11.60
2019-02-18T17:03:17.431Z,11.60
2019-02-18T17:05:49.431Z,11.50
2019-02-18T17:08:19.893Z,11.40
2019-02-18T17:10:51.343Z,11.30
2019-02-18T17:13:23.064Z,11.20
2019-02-18T17:15:54.322Z,11.30
2019-02-18T17:18:25.732Z,11.10
2019-02-18T17:20:57.897Z,11.00
2019-02-18T17:23:29.482Z,10.90
2019-02-18T17:26:01.666Z,10.80
2019-02-18T17:28:33.135Z,10.70
2019-02-18T17:31:04.455Z,10.70
2019-02-18T17:33:36.429Z,10.70
2019-02-18T17:36:07.511Z,10.70
2019-02-18T17:38:38.821Z,10.30
2019-02-18T17:41:10.154Z,10.00
2019-02-18T17:43:41.766Z,9.80
2019-02-18T17:46:12.596Z,9.90
2019-02-18T17:48:44.347Z,9.90
2019-02-18T17:51:16.379Z,9.90
2019-02-18T17:53:48.030Z,9.80
2019-02-18T17:56:19.605Z,9.80
2019-02-18T17:58:51.651Z,9.80
2019-02-18T18:01:23.587Z,9.70
2019-02-18T18:03:55.381Z,9.50
2019-02-18T18:06:26.541Z,9.50
2019-02-18T18:08:58.743Z,9.40
2019-02-18T18:11:31.267Z,9.30
2019-02-18T18:14:04.647Z,9.10
2019-02-18T18:16:35.811Z,9.00
2019-02-18T18:19:09.515Z,8.90
2019-02-18T18:21:43.021Z,8.90
2019-02-18T18:24:14.978Z,8.80
2019-02-18T18:26:46.468Z,8.70
2019-02-18T18:29:17.665Z,8.60
2019-02-18T18:31:49.066Z,8.60
2019-02-18T18:34:20.661Z,8.60
2019-02-18T18:36:52.430Z,8.60
2019-02-18T18:39:23.746Z,8.50
2019-02-18T18:41:55.025Z,8.40
2019-02-18T18:44:27.035Z,8.40
2019-02-18T18:46:58.923Z,8.30
2019-02-18T18:49:30.230Z,8.20
2019-02-18T18:52:02.258Z,8.50
2019-02-18T18:54:33.883Z,8.30
2019-02-18T18:57:05.738Z,8.20
2019-02-18T18:59:37.951Z,8.00
2019-02-18T19:02:09.715Z,8.00
2019-02-18T19:04:41.261Z,7.80
2019-02-18T19:07:13.323Z,7.80
2019-02-18T19:09:45.698Z,7.70
2019-02-18T19:12:17.235Z,7.60
2019-02-18T19:14:48.750Z,7.50
2019-02-18T19:17:20.576Z,7.50
2019-02-18T19:19:57.707Z,7.40
2019-02-18T19:22:25.896Z,7.40
2019-02-18T19:24:58.202Z,7.30
2019-02-18T19:27:29.211Z,7.30
2019-02-18T19:30:01.122Z,7.20
2019-02-18T19:32:33.102Z,7.20
2019-02-18T19:35:05.828Z,7.20
2019-02-18T19:37:37.387Z,7.10
2019-02-18T19:40:10.512Z,7.10
2019-02-18T19:42:41.852Z,7.00
2019-02-18T19:45:18.052Z,7.00
2019-02-18T19:47:50.056Z,7.00
2019-02-18T19:50:22.287Z,6.90
2019-02-18T19:52:54.945Z,7.00
2019-02-18T19:55:27.198Z,6.90
2019-02-18T19:57:59.483Z,6.90
2019-02-18T20:00:30.814Z,6.90
2019-02-18T20:03:02.586Z,6.80
2019-02-18T20:05:33.926Z,6.70
2019-02-18T20:08:05.637Z,6.70
2019-02-18T20:10:37.770Z,6.60
2019-02-18T20:13:09.699Z,6.60
2019-02-18T20:15:40.992Z,6.50
2019-02-18T20:18:13.878Z,6.40
2019-02-18T20:20:45.340Z,6.50
2019-02-18T20:23:17.564Z,6.40
2019-02-18T20:25:49.127Z,6.30
2019-02-18T20:28:20.806Z,6.20
2019-02-18T20:30:52.287Z,6.30
2019-02-18T20:33:24.198Z,6.30
2019-02-18T20:35:56.167Z,6.20
2019-02-18T20:38:27.992Z,6.20
2019-02-18T20:40:59.476Z,6.20
2019-02-18T20:43:31.493Z,6.10
2019-02-18T20:46:02.978Z,6.00
2019-02-18T20:48:34.438Z,5.90
2019-02-18T20:51:05.926Z,5.90
2019-02-18T20:53:37.104Z,5.90
2019-02-18T20:56:08.336Z,5.90
2019-02-18T20:58:39.882Z,5.80
2019-02-18T21:01:11.540Z,5.70
2019-02-18T21:03:43.312Z,5.70
2019-02-18T21:06:14.831Z,5.70
2019-02-18T21:08:46.802Z,5.70
2019-02-18T21:11:18.701Z,5.60
2019-02-18T21:13:51.255Z,5.60
2019-02-18T21:16:23.333Z,5.60
2019-02-18T21:18:55.243Z,5.50
2019-02-18T21:21:26.640Z,5.40
2019-02-18T21:23:58.115Z,5.40
2019-02-18T21:26:30.362Z,5.40
2019-02-18T21:29:01.694Z,5.40
2019-02-18T21:31:32.968Z,5.40
2019-02-18T21:34:05.229Z,5.30
2019-02-18T21:36:37.469Z,5.30
2019-02-18T21:39:13.056Z,5.20
2019-02-18T21:41:44.467Z,5.20
2019-02-18T21:44:24.748Z,5.30
2019-02-18T21:46:50.197Z,5.20
2019-02-18T21:49:21.922Z,5.20
2019-02-18T21:51:53.518Z,5.20
2019-02-18T21:54:24.875Z,5.20
2019-02-18T21:56:56.124Z,5.20
2019-02-18T21:59:27.798Z,5.20
2019-02-18T22:01:59.411Z,5.10
2019-02-18T22:04:30.993Z,5.10
2019-02-18T22:07:02.652Z,5.10
2019-02-18T22:09:34.497Z,5.30
2019-02-18T22:12:06.411Z,5.20
2019-02-18T22:14:37.997Z,5.20
2019-02-18T22:17:09.327Z,5.20
2019-02-18T22:19:40.907Z,5.10
2019-02-18T22:22:12.241Z,5.10
2019-02-18T22:24:44.093Z,5.00
2019-02-18T22:27:16.054Z,4.90
2019-02-18T22:29:47.789Z,4.90
2019-02-18T22:32:19.624Z,5.00
2019-02-18T22:34:50.956Z,4.90
2019-02-18T22:37:22.498Z,4.90
2019-02-18T22:39:54.214Z,4.80
2019-02-18T22:42:25.878Z,4.70
2019-02-18T22:44:57.754Z,4.60
2019-02-18T22:47:29.311Z,4.60
2019-02-18T22:50:00.941Z,4.50
2019-02-18T22:52:32.841Z,4.50
2019-02-18T22:55:04.423Z,4.50
2019-02-18T22:57:35.719Z,4.40
2019-02-18T23:00:43.761Z,4.30
2019-02-18T23:03:15.202Z,4.40
2019-02-18T23:05:46.851Z,4.30
2019-02-18T23:08:18.773Z,4.20
2019-02-18T23:10:50.370Z,4.20
2019-02-18T23:13:21.890Z,4.20
2019-02-18T23:15:52.871Z,4.10
2019-02-18T23:18:23.844Z,4.20
2019-02-18T23:20:55.217Z,4.30
2019-02-18T23:23:26.457Z,4.40
2019-02-18T23:25:57.476Z,4.40
2019-02-18T23:28:28.713Z,4.40
2019-02-18T23:31:00.265Z,4.40
2019-02-18T23:33:31.693Z,4.40
2019-02-18T23:36:03.576Z,4.40
2019-02-18T23:38:34.526Z,4.40
2019-02-18T23:41:05.870Z,4.40
2019-02-18T23:43:37.705Z,4.30
2019-02-18T23:46:09.277Z,4.40
2019-02-18T23:48:41.154Z,4.30
2019-02-18T23:51:12.734Z,4.20
2019-02-18T23:53:44.285Z,4.20
2019-02-18T23:56:15.586Z,4.10
2019-02-18T23:58:47.157Z,4.20
